Time;durP1;ratioP1;P1;durP2;ratioP2;P2;SDS_P1;SDS_P2;PMS_P1;PMS_P2;Temp;Humidity;BMP_temperature;BMP_pressure;BME280_temperature;BME280_humidity;BME280_pressure;Samples;Min_cycle;Max_cycle;Signal;HPM_P1;HPM_P2
2021/10/19 00:02:28;;;;;;;19.27;17.07;;;12.60;99.90;;;;;;6239383;23;20479;-88
2021/10/19 00:05:08;;;;;;;17.30;13.37;;;12.40;99.90;;;;;;6207925;23;20470;-87
2021/10/19 00:07:36;;;;;;;18.97;15.33;;;12.50;99.90;;;;;;6220322;23;20475;-86
2021/10/19 00:10:08;;;;;;;19.60;15.27;;;12.70;99.90;;;;;;6220218;23;20432;-87
2021/10/19 00:12:36;;;;;;;25.67;16.80;;;12.70;99.90;;;;;;6223231;23;20424;-87
2021/10/19 00:15:14;;;;;;;18.90;14.70;;;12.70;99.90;;;;;;6252109;22;20424;-87
2021/10/19 00:17:48;;;;;;;20.23;16.03;;;12.70;99.90;;;;;;6199915;23;20411;-86
2021/10/19 00:20:23;;;;;;;18.77;13.73;;;12.60;99.90;;;;;;6225328;23;20494;-87
2021/10/19 00:22:53;;;;;;;21.57;15.70;;;12.70;99.90;;;;;;6222818;23;20547;-87
2021/10/19 00:25:29;;;;;;;16.67;14.40;;;12.70;99.90;;;;;;6223821;23;20451;-87
2021/10/19 00:28:07;;;;;;;17.53;13.50;;;12.70;99.90;;;;;;6222529;23;20507;-86
2021/10/19 00:30:38;;;;;;;19.17;15.60;;;12.80;99.90;;;;;;6222482;23;20400;-88
2021/10/19 00:33:09;;;;;;;20.87;14.50;;;12.60;99.90;;;;;;6221480;22;20789;-84
2021/10/19 00:35:42;;;;;;;18.37;14.03;;;12.70;99.90;;;;;;6223248;23;20487;-86
2021/10/19 00:38:12;;;;;;;19.17;15.17;;;12.80;99.90;;;;;;6222058;23;20450;-89
2021/10/19 00:40:42;;;;;;;18.33;14.03;;;12.80;99.90;;;;;;6223267;23;20402;-87
2021/10/19 00:43:09;;;;;;;21.30;13.77;;;12.80;99.90;;;;;;6247935;22;20416;-86
2021/10/19 00:45:42;;;;;;;19.93;14.27;;;12.70;99.90;;;;;;6225032;23;20483;-85
2021/10/19 00:48:11;;;;;;;19.20;13.30;;;13.00;99.90;;;;;;6222420;23;20443;-87
2021/10/19 00:50:43;;;;;;;19.30;17.33;;;12.90;99.90;;;;;;6219925;23;20861;-86
2021/10/19 00:53:10;;;;;;;19.60;14.90;;;12.90;99.90;;;;;;6247695;22;20404;-87
2021/10/19 00:55:37;;;;;;;20.20;15.83;;;12.80;99.90;;;;;;6220946;23;20408;-87
2021/10/19 00:58:08;;;;;;;18.33;14.17;;;12.70;99.90;;;;;;6248856;23;20447;-86
2021/10/19 01:00:36;;;;;;;19.83;14.40;;;12.90;99.90;;;;;;6247628;23;20416;-86
2021/10/19 01:03:09;;;;;;;16.87;13.90;;;12.90;99.90;;;;;;6221028;22;20420;-86
2021/10/19 01:05:41;;;;;;;17.20;13.43;;;12.90;99.90;;;;;;6247799;23;20828;-85
2021/10/19 01:08:11;;;;;;;17.53;14.60;;;12.80;99.90;;;;;;6246316;23;20455;-86
2021/10/19 01:10:41;;;;;;;17.90;14.87;;;12.90;99.90;;;;;;6246837;23;20439;-88
2021/10/19 01:18:27;;;;;;;18.60;12.57;;;12.90;99.90;;;;;;6248263;23;20458;-88
2021/10/19 01:20:47;;;;;;;16.80;13.70;;;12.90;99.90;;;;;;6178291;22;20495;-89
2021/10/19 01:23:18;;;;;;;16.77;13.07;;;13.10;99.90;;;;;;6263764;22;20408;-89
2021/10/19 01:26:09;;;;;;;15.33;12.63;;;12.90;99.90;;;;;;6254222;22;20404;-87
2021/10/19 01:29:07;;;;;;;15.70;13.30;;;12.70;99.90;;;;;;6263516;22;20428;-89
2021/10/19 01:32:10;;;;;;;15.53;11.77;;;12.90;99.90;;;;;;6260545;22;20392;-90
2021/10/19 01:34:47;;;;;;;15.40;12.80;;;13.00;99.90;;;;;;6211544;22;20454;-89
2021/10/19 01:37:15;;;;;;;15.40;12.50;;;13.10;99.90;;;;;;6238170;23;20494;-87
2021/10/19 01:39:44;;;;;;;17.83;12.47;;;13.00;99.90;;;;;;6255951;23;20419;-89
2021/10/19 01:42:15;;;;;;;14.90;13.00;;;13.10;99.90;;;;;;6265469;22;20447;-88
2021/10/19 01:44:42;;;;;;;15.60;11.60;;;13.20;99.90;;;;;;6265958;22;20436;-87
2021/10/19 01:47:11;;;;;;;16.20;11.87;;;13.30;99.90;;;;;;6265513;22;20482;-89
2021/10/19 01:49:38;;;;;;;16.07;12.60;;;13.20;99.90;;;;;;6265112;22;20408;-89
2021/10/19 01:52:34;;;;;;;14.43;11.40;;;13.10;99.90;;;;;;6262970;22;20428;-88
2021/10/19 01:55:21;;;;;;;16.50;11.17;;;13.10;99.90;;;;;;6173070;23;20406;-88
2021/10/19 02:05:42;;;;;;;14.83;12.83;;;13.30;99.90;;;;;;6060814;23;20498;-88
2021/10/19 02:08:18;;;;;;;16.70;12.37;;;13.10;99.90;;;;;;6043592;23;20969;-87
2021/10/19 02:11:00;;;;;;;13.87;11.80;;;13.20;99.90;;;;;;6066701;23;20414;-88
2021/10/19 02:13:30;;;;;;;17.13;13.10;;;13.30;99.90;;;;;;6088488;23;21012;-87
2021/10/19 02:15:57;;;;;;;13.97;11.57;;;13.20;99.90;;;;;;6066097;23;20417;-89
2021/10/19 02:19:12;;;;;;;16.13;13.07;;;13.20;99.90;;;;;;6089404;23;20479;-87
2021/10/19 02:21:54;;;;;;;16.80;12.90;;;13.20;99.90;;;;;;5903531;24;20464;-87
2021/10/19 02:24:21;;;;;;;17.03;14.20;;;13.00;99.90;;;;;;5951942;24;20445;-87
2021/10/19 02:26:48;;;;;;;22.50;14.27;;;12.90;99.90;;;;;;5927195;24;20433;-90
2021/10/19 02:29:16;;;;;;;16.37;12.80;;;13.00;99.90;;;;;;5954638;24;20445;-87
2021/10/19 02:40:25;;;;;;;17.40;14.27;;;12.80;99.90;;;;;;6275648;22;20985;-86
2021/10/19 02:43:23;;;;;;;24.00;16.23;;;12.90;99.90;;;;;;6153246;23;20414;-90
2021/10/19 02:45:50;;;;;;;20.90;15.03;;;12.80;99.90;;;;;;6124187;23;20416;-89
2021/10/19 02:48:17;;;;;;;19.77;15.60;;;12.80;99.90;;;;;;6127287;23;20440;-87
2021/10/19 02:50:45;;;;;;;18.33;16.03;;;12.90;99.90;;;;;;6188103;23;20419;-88
2021/10/19 02:53:11;;;;;;;24.00;18.07;;;13.00;99.90;;;;;;6244016;23;20455;-88
2021/10/19 02:55:41;;;;;;;22.67;16.30;;;12.80;99.90;;;;;;6242168;23;20415;-88
2021/10/19 02:58:16;;;;;;;23.40;17.70;;;12.80;99.90;;;;;;6244410;23;20439;-86
2021/10/19 03:00:43;;;;;;;22.63;15.73;;;12.70;99.90;;;;;;6242776;23;20488;-88
2021/10/19 03:03:15;;;;;;;26.90;18.87;;;12.60;99.90;;;;;;6245102;23;20416;-90
2021/10/19 03:06:02;;;;;;;24.30;17.40;;;12.50;99.90;;;;;;6243605;23;20404;-88
2021/10/19 03:08:32;;;;;;;23.80;17.37;;;12.50;99.90;;;;;;6243447;23;20531;-88
2021/10/19 03:11:29;;;;;;;27.50;18.93;;;12.50;99.90;;;;;;6242869;23;20967;-88
2021/10/19 03:19:58;;;;;;;24.97;17.20;;;12.40;99.90;;;;;;6268723;22;20537;-88
2021/10/19 03:22:41;;;;;;;21.50;16.40;;;12.50;99.90;;;;;;6272939;22;20415;-89
2021/10/19 03:31:44;;;;;;;26.23;17.37;;;12.50;99.90;;;;;;6270679;22;20905;-88
2021/10/19 03:34:12;;;;;;;23.17;16.60;;;12.60;99.90;;;;;;6259916;22;20444;-88
2021/10/19 03:37:05;;;;;;;21.47;15.23;;;12.60;99.90;;;;;;6195972;23;20416;-87
2021/10/19 03:50:48;;;;;;;21.40;16.70;;;12.60;99.90;;;;;;6122292;23;20482;-89
2021/10/19 03:54:02;;;;;;;21.77;16.17;;;12.60;99.90;;;;;;6101197;23;20399;-89
2021/10/19 03:56:45;;;;;;;23.57;17.83;;;12.60;99.90;;;;;;6125410;23;20494;-87
2021/10/19 03:59:21;;;;;;;23.80;18.10;;;12.60;99.90;;;;;;6128397;23;20463;-87
2021/10/19 04:03:08;;;;;;;;;;;;;;;;;;;;;
2021/10/19 04:06:27;;;;;;;23.40;17.93;;;12.70;99.90;;;;;;6039988;23;20406;-88
2021/10/19 04:09:17;;;;;;;24.03;15.77;;;12.80;99.90;;;;;;5987226;23;20441;-87
2021/10/19 04:12:08;;;;;;;;;;;;;;;;;;;;;
2021/10/19 04:14:54;;;;;;;21.90;17.33;;;12.90;99.90;;;;;;6109195;23;20409;-91
2021/10/19 04:17:23;;;;;;;20.17;16.67;;;12.80;99.90;;;;;;6111586;23;20493;-89
2021/10/19 04:19:50;;;;;;;26.33;18.03;;;12.80;99.90;;;;;;6101905;23;20440;-88
2021/10/19 04:22:22;;;;;;;23.20;18.40;;;12.80;99.90;;;;;;6102293;23;20419;-88
2021/10/19 04:24:52;;;;;;;23.87;18.17;;;12.80;99.90;;;;;;6096769;23;20455;-89
2021/10/19 04:31:53;;;;;;;22.07;17.57;;;12.70;99.90;;;;;;6033298;23;20401;-86
2021/10/19 04:34:34;;;;;;;23.70;17.07;;;12.70;99.90;;;;;;6146327;23;20539;-87
2021/10/19 04:37:03;;;;;;;28.60;19.43;;;12.80;99.90;;;;;;6239296;23;20442;-87
2021/10/19 04:39:57;;;;;;;22.70;18.30;;;12.70;99.90;;;;;;6220273;23;20396;-87
2021/10/19 04:42:27;;;;;;;19.10;15.57;;;12.70;99.90;;;;;;6242326;23;20404;-88
2021/10/19 04:48:28;;;;;;;24.63;18.17;;;12.80;99.90;;;;;;6244130;23;20806;-87
2021/10/19 04:51:49;;;;;;;24.60;18.50;;;12.80;99.90;;;;;;6242036;23;20479;-89
2021/10/19 04:54:33;;;;;;;19.83;14.70;;;12.80;99.90;;;;;;6216951;23;20416;-89
2021/10/19 04:56:59;;;;;;;23.57;18.20;;;12.80;99.90;;;;;;6238733;23;20475;-88
2021/10/19 04:59:26;;;;;;;22.47;15.93;;;12.90;99.90;;;;;;6241508;23;20416;-89
2021/10/19 05:01:53;;;;;;;25.73;16.60;;;12.70;99.90;;;;;;6241996;23;20486;-88
2021/10/19 05:04:20;;;;;;;28.10;18.93;;;12.70;99.90;;;;;;6240295;22;20504;-88
2021/10/19 05:07:16;;;;;;;22.93;16.30;;;12.80;99.90;;;;;;6239911;23;20415;-88
2021/10/19 05:10:03;;;;;;;23.60;18.10;;;12.90;99.90;;;;;;6235711;23;20410;-88
2021/10/19 05:12:55;;;;;;;22.60;17.80;;;12.80;99.90;;;;;;6237828;23;20732;-87
2021/10/19 05:15:33;;;;;;;21.33;15.83;;;12.80;99.90;;;;;;6236548;23;20447;-90
2021/10/19 05:18:04;;;;;;;25.80;18.00;;;12.90;99.90;;;;;;6236963;23;20419;-88
2021/10/19 05:20:37;;;;;;;29.50;23.10;;;13.00;99.90;;;;;;6239121;23;20424;-88
2021/10/19 05:23:39;;;;;;;34.23;26.93;;;12.90;99.90;;;;;;6241243;22;20411;-89
2021/10/19 05:26:20;;;;;;;27.47;22.07;;;12.80;99.90;;;;;;6196311;23;20404;-88
2021/10/19 05:28:47;;;;;;;24.83;19.27;;;12.80;99.90;;;;;;6240074;23;20506;-88
2021/10/19 05:31:53;;;;;;;23.73;18.20;;;12.90;99.90;;;;;;6238953;23;20408;-87
2021/10/19 05:34:56;;;;;;;26.47;18.97;;;12.90;99.90;;;;;;6238379;23;20454;-88
2021/10/19 05:37:24;;;;;;;26.70;19.10;;;13.00;99.90;;;;;;6213292;23;20434;-89
2021/10/19 05:39:56;;;;;;;26.10;17.80;;;13.00;99.90;;;;;;6214010;23;20427;-88
2021/10/19 05:43:32;;;;;;;21.33;14.97;;;13.00;99.90;;;;;;6194992;23;20411;-89
2021/10/19 05:45:59;;;;;;;23.40;19.10;;;13.00;99.90;;;;;;6214299;23;20515;-90
2021/10/19 05:51:44;;;;;;;22.83;17.87;;;12.80;99.90;;;;;;6248216;23;20498;-88
2021/10/19 05:54:13;;;;;;;21.40;16.40;;;12.90;99.90;;;;;;6213068;23;20503;-90
2021/10/19 05:56:40;;;;;;;18.83;14.63;;;12.90;99.90;;;;;;6212241;23;20423;-89
2021/10/19 05:59:07;;;;;;;21.67;17.03;;;13.10;99.90;;;;;;6239509;23;20502;-88
2021/10/19 06:08:46;;;;;;;19.17;14.80;;;13.10;99.90;;;;;;6147962;23;20501;-90
2021/10/19 06:14:55;;;;;;;18.60;14.20;;;13.20;99.90;;;;;;6240579;22;20461;-88
2021/10/19 06:17:28;;;;;;;18.70;14.93;;;13.20;99.90;;;;;;6212466;23;20407;-90
2021/10/19 06:23:52;;;;;;;14.07;12.03;;;13.10;99.90;;;;;;6245754;22;20458;-89
2021/10/19 06:27:07;;;;;;;15.60;11.63;;;13.20;99.90;;;;;;6219623;23;20732;-88
2021/10/19 06:33:25;;;;;;;17.40;13.20;;;13.10;99.90;;;;;;6249672;22;20440;-89
2021/10/19 06:35:52;;;;;;;14.93;12.70;;;13.10;99.90;;;;;;6235944;22;20412;-89
2021/10/19 06:38:19;;;;;;;15.23;12.20;;;13.10;99.90;;;;;;6262846;22;20832;-90
2021/10/19 06:40:46;;;;;;;13.97;12.10;;;13.10;99.90;;;;;;6263213;22;20400;-89
2021/10/19 06:46:44;;;;;;;12.70;11.40;;;13.30;99.90;;;;;;6264243;22;20408;-91
2021/10/19 06:50:04;;;;;;;12.60;10.60;;;13.40;99.90;;;;;;6262816;22;20442;-90
2021/10/19 06:53:25;;;;;;;13.10;11.13;;;13.30;99.90;;;;;;6211982;23;20416;-90
2021/10/19 07:20:00;;;;;;;10.70;9.17;;;13.60;99.90;;;;;;6220357;22;20435;-89
2021/10/19 07:23:26;;;;;;;9.13;8.23;;;13.70;99.90;;;;;;6271096;22;20738;-89
2021/10/19 07:26:20;;;;;;;9.30;8.30;;;13.80;99.90;;;;;;6084166;23;20439;-88
2021/10/19 07:48:16;;;;;;;8.13;7.33;;;14.00;99.90;;;;;;6065345;23;21225;-88
2021/10/19 07:57:13;;;;;;;7.93;6.73;;;14.00;99.90;;;;;;6271752;22;20424;-87
2021/10/19 08:00:00;;;;;;;6.70;6.20;;;13.70;99.90;;;;;;6270834;22;20403;-88
2021/10/19 08:06:34;;;;;;;7.33;6.53;;;14.10;99.90;;;;;;6244713;23;20492;-87
2021/10/19 08:09:33;;;;;;;6.87;6.17;;;14.30;99.90;;;;;;6215310;23;20450;-88
2021/10/19 08:12:17;;;;;;;7.23;6.53;;;14.20;99.90;;;;;;6178113;23;20439;-88
2021/10/19 08:22:49;;;;;;;5.90;5.40;;;14.30;99.90;;;;;;6032877;23;20998;-87
2021/10/19 08:33:36;;;;;;;6.30;5.70;;;14.30;99.90;;;;;;5988184;24;20405;-87
2021/10/19 08:36:40;;;;;;;7.07;6.40;;;14.30;99.90;;;;;;5944725;24;20407;-90
2021/10/19 08:39:21;;;;;;;5.87;5.27;;;14.20;99.90;;;;;;5992129;23;20458;-88
2021/10/19 08:41:48;;;;;;;6.10;5.50;;;14.30;99.90;;;;;;6128427;23;20441;-88
2021/10/19 08:44:15;;;;;;;5.50;5.00;;;14.20;99.90;;;;;;6149119;23;20438;-87
2021/10/19 08:46:44;;;;;;;5.23;4.83;;;14.30;99.90;;;;;;6125493;23;20422;-87
2021/10/19 08:52:56;;;;;;;4.40;4.00;;;14.30;99.90;;;;;;6133223;23;20383;-88
2021/10/19 08:55:25;;;;;;;4.53;4.20;;;14.30;99.90;;;;;;6250285;23;20523;-89
2021/10/19 08:58:02;;;;;;;4.70;4.00;;;14.40;99.90;;;;;;6221833;23;20406;-88
2021/10/19 09:00:43;;;;;;;4.30;3.90;;;14.20;99.90;;;;;;6120636;23;20400;-88
2021/10/19 09:03:10;;;;;;;5.13;4.63;;;14.40;99.90;;;;;;6118452;23;20971;-89
2021/10/19 09:05:37;;;;;;;4.83;4.43;;;14.80;99.90;;;;;;6119739;23;20492;-87
2021/10/19 09:08:11;;;;;;;4.20;3.90;;;14.70;99.90;;;;;;6119235;23;20409;-88
2021/10/19 09:10:41;;;;;;;4.60;4.13;;;14.90;99.90;;;;;;6119203;23;20434;-88
2021/10/19 09:13:16;;;;;;;3.83;3.53;;;14.70;99.90;;;;;;6118782;23;20510;-88
2021/10/19 09:15:46;;;;;;;4.50;3.77;;;14.60;99.90;;;;;;6122116;23;20423;-89
2021/10/19 09:18:19;;;;;;;4.17;3.87;;;14.70;99.90;;;;;;6124239;23;20539;-89
2021/10/19 09:20:54;;;;;;;4.27;3.87;;;14.80;99.90;;;;;;6126429;23;20415;-86
2021/10/19 09:27:19;;;;;;;3.60;3.30;;;15.10;99.90;;;;;;6080981;23;20506;-89
2021/10/19 09:29:50;;;;;;;3.10;2.80;;;14.90;99.90;;;;;;6117810;23;20796;-87
2021/10/19 09:32:18;;;;;;;4.50;4.10;;;15.20;99.90;;;;;;6212110;23;20441;-86
2021/10/19 09:34:51;;;;;;;3.77;3.47;;;15.30;99.90;;;;;;6214813;23;20428;-88
2021/10/19 09:37:28;;;;;;;4.10;3.80;;;15.30;99.90;;;;;;6243165;23;20410;-86
2021/10/19 09:40:13;;;;;;;3.40;3.20;;;15.30;99.90;;;;;;6243497;23;20427;-87
2021/10/19 09:43:20;;;;;;;4.00;3.63;;;15.20;99.90;;;;;;6221154;23;20404;-86
2021/10/19 09:46:06;;;;;;;3.90;3.60;;;15.10;99.90;;;;;;6224060;23;20934;-86
2021/10/19 09:48:35;;;;;;;4.83;4.33;;;14.90;99.90;;;;;;6247767;23;20435;-88
2021/10/19 09:51:03;;;;;;;4.13;3.83;;;15.00;99.90;;;;;;6218560;23;20415;-86
2021/10/19 09:53:36;;;;;;;4.13;3.83;;;15.30;99.90;;;;;;6218628;23;21246;-85
2021/10/19 09:56:09;;;;;;;4.50;4.13;;;15.50;99.90;;;;;;6219537;23;20471;-88
2021/10/19 09:58:37;;;;;;;4.83;3.90;;;15.50;99.90;;;;;;6235748;23;20423;-88
2021/10/19 10:01:10;;;;;;;4.27;3.97;;;15.50;99.90;;;;;;6261561;22;20396;-90
2021/10/19 10:03:51;;;;;;;4.00;3.70;;;15.50;99.90;;;;;;6246042;23;20521;-87
2021/10/19 10:06:26;;;;;;;4.00;3.70;;;15.60;99.90;;;;;;6218837;23;20426;-87
2021/10/19 10:09:21;;;;;;;4.90;4.50;;;15.50;99.90;;;;;;6216382;23;20459;-87
2021/10/19 10:12:08;;;;;;;4.60;4.30;;;15.50;99.90;;;;;;6214539;23;20771;-88
2021/10/19 10:14:46;;;;;;;4.43;3.90;;;15.50;99.90;;;;;;6240663;23;20507;-89
2021/10/19 10:17:13;;;;;;;4.83;4.07;;;15.50;99.90;;;;;;6241973;23;20408;-88
2021/10/19 10:19:41;;;;;;;5.37;4.87;;;15.50;99.90;;;;;;6243004;23;20815;-87
2021/10/19 10:22:25;;;;;;;5.80;4.93;;;15.60;99.90;;;;;;6216501;23;20416;-87
2021/10/19 10:25:09;;;;;;;4.70;4.30;;;15.70;99.90;;;;;;6225970;23;20423;-88
2021/10/19 10:27:39;;;;;;;7.50;4.70;;;15.60;99.90;;;;;;6236918;22;20423;-88
2021/10/19 10:30:24;;;;;;;5.23;4.77;;;15.40;99.90;;;;;;6212160;23;20474;-87
2021/10/19 10:35:33;;;;;;;5.00;4.60;;;15.70;99.90;;;;;;6271178;22;20489;-91
2021/10/19 10:38:03;;;;;;;5.50;5.10;;;15.70;99.90;;;;;;6276067;22;20498;-89
2021/10/19 10:40:31;;;;;;;5.20;4.40;;;15.70;99.90;;;;;;6276086;22;20450;-87
2021/10/19 10:43:00;;;;;;;4.80;4.40;;;15.70;99.90;;;;;;6245516;22;20935;-87
2021/10/19 10:45:36;;;;;;;5.23;4.80;;;15.60;99.90;;;;;;6241744;23;20439;-87
2021/10/19 10:48:17;;;;;;;5.97;5.37;;;15.70;99.90;;;;;;6186274;23;20408;-87
2021/10/19 10:50:51;;;;;;;4.47;4.07;;;15.70;99.90;;;;;;6241602;23;20400;-88
2021/10/19 10:54:00;;;;;;;5.03;4.63;;;15.60;99.90;;;;;;6248020;23;20427;-89
2021/10/19 10:57:07;;;;;;;;;;;;;;;;;;;;;
2021/10/19 11:01:01;;;;;;;;;;;;;;;;;;;;;
2021/10/19 11:06:25;;;;;;;6.53;5.30;;;15.80;99.90;;;;;;6287997;22;20443;-88
2021/10/19 11:09:06;;;;;;;6.33;5.70;;;16.00;99.90;;;;;;6263908;22;20440;-89
2021/10/19 11:11:37;;;;;;;5.67;5.20;;;16.10;99.90;;;;;;6288692;22;20418;-90
2021/10/19 11:17:57;;;;;;;5.90;5.40;;;16.00;99.90;;;;;;6218940;23;20992;-88
2021/10/19 11:20:26;;;;;;;5.77;5.27;;;16.10;99.90;;;;;;6217655;23;20411;-90
2021/10/19 11:23:03;;;;;;;7.07;5.60;;;16.00;99.90;;;;;;6215484;23;20466;-86
2021/10/19 11:25:31;;;;;;;6.43;5.87;;;16.20;99.90;;;;;;6213677;23;20764;-88
2021/10/19 11:27:58;;;;;;;7.10;5.40;;;16.20;99.90;;;;;;6213665;23;20447;-87
2021/10/19 11:30:25;;;;;;;6.77;5.80;;;16.30;99.90;;;;;;6211853;23;20436;-88
2021/10/19 11:33:45;;;;;;;6.23;5.73;;;16.40;99.90;;;;;;6238441;23;20721;-87
2021/10/19 11:36:14;;;;;;;8.60;6.33;;;16.40;99.90;;;;;;6146154;23;20487;-87
2021/10/19 11:39:37;;;;;;;7.07;6.30;;;16.40;99.90;;;;;;6233585;23;20418;-89
2021/10/19 11:42:20;;;;;;;9.77;6.37;;;16.70;99.90;;;;;;6232634;23;20467;-88
2021/10/19 11:46:03;;;;;;;10.20;6.40;;;16.70;99.90;;;;;;6213351;23;20653;-87
2021/10/19 11:48:51;;;;;;;8.83;6.17;;;16.90;99.90;;;;;;6213738;23;20446;-88
2021/10/19 11:51:23;;;;;;;7.50;5.73;;;16.70;99.90;;;;;;6212900;23;20404;-87
2021/10/19 11:53:55;;;;;;;6.00;5.50;;;17.00;99.90;;;;;;6237459;22;20435;-88
2021/10/19 11:56:22;;;;;;;5.60;5.10;;;17.30;99.90;;;;;;6239878;23;20404;-89
2021/10/19 11:58:54;;;;;;;5.77;5.27;;;17.40;99.90;;;;;;6211641;23;20412;-85
2021/10/19 12:01:24;;;;;;;5.53;5.13;;;17.40;99.90;;;;;;6212547;23;20404;-85
2021/10/19 12:04:04;;;;;;;7.23;5.57;;;17.40;99.90;;;;;;6222900;23;20517;-87
2021/10/19 12:07:40;;;;;;;6.17;5.27;;;17.40;99.90;;;;;;6224622;23;20482;-87
2021/10/19 12:10:31;;;;;;;7.67;6.97;;;17.40;99.90;;;;;;6212603;23;20442;-88
2021/10/19 12:13:10;;;;;;;8.57;6.67;;;17.50;99.90;;;;;;6250408;23;20414;-86
2021/10/19 12:22:35;;;;;;;6.40;5.80;;;17.50;99.90;;;;;;6097357;23;20431;-88
2021/10/19 12:25:06;;;;;;;6.07;5.50;;;17.60;99.90;;;;;;6134459;23;20432;-85
2021/10/19 12:27:35;;;;;;;7.23;5.80;;;17.50;99.90;;;;;;6250898;23;20416;-88
2021/10/19 12:30:02;;;;;;;7.17;5.30;;;17.20;99.90;;;;;;6222702;23;20462;-87
2021/10/19 12:32:35;;;;;;;6.70;5.27;;;17.40;99.90;;;;;;6250126;23;20660;-88
2021/10/19 12:35:03;;;;;;;6.33;3.93;;;17.30;99.90;;;;;;6223265;23;20420;-87
2021/10/19 12:37:41;;;;;;;5.63;4.37;;;17.50;99.90;;;;;;6224295;23;20408;-86
2021/10/19 12:40:22;;;;;;;4.53;4.13;;;17.70;99.90;;;;;;6223472;23;20483;-87
2021/10/19 12:43:11;;;;;;;4.23;3.83;;;17.80;99.90;;;;;;6225771;22;20695;-87
2021/10/19 12:46:49;;;;;;;4.50;4.10;;;17.70;99.90;;;;;;6226919;23;20455;-86
2021/10/19 12:49:34;;;;;;;3.70;3.40;;;17.60;99.90;;;;;;6230848;23;20576;-87
2021/10/19 12:52:01;;;;;;;3.70;3.20;;;17.50;99.90;;;;;;6240705;23;20902;-87
2021/10/19 12:54:28;;;;;;;5.23;3.87;;;17.50;99.90;;;;;;6246036;22;20428;-88
2021/10/19 12:56:54;;;;;;;3.73;3.40;;;17.40;99.90;;;;;;6274261;22;20450;-90
2021/10/19 12:59:23;;;;;;;6.07;3.50;;;17.70;99.90;;;;;;6248394;23;20477;-89
2021/10/19 13:01:51;;;;;;;8.40;3.37;;;17.70;99.90;;;;;;6274466;22;20483;-86
2021/10/19 13:04:18;;;;;;;5.43;4.70;;;17.90;99.90;;;;;;6266284;22;20452;-86
2021/10/19 13:06:44;;;;;;;11.40;4.80;;;18.10;99.90;;;;;;6228404;23;20405;-85
2021/10/19 13:09:11;;;;;;;5.30;4.20;;;18.40;99.90;;;;;;6229102;23;20463;-86
2021/10/19 13:18:45;;;;;;;4.50;4.10;;;18.30;99.90;;;;;;6240273;23;20404;-87
2021/10/19 13:21:14;;;;;;;4.07;3.67;;;18.40;99.90;;;;;;6226776;23;20430;-86
2021/10/19 13:27:28;;;;;;;4.87;3.97;;;18.20;99.90;;;;;;6254320;23;20363;-89
2021/10/19 13:29:57;;;;;;;6.13;4.43;;;18.10;99.90;;;;;;6230474;23;20503;-87
2021/10/19 13:40:21;;;;;;;6.17;5.57;;;18.30;99.90;;;;;;6188646;23;20387;-88
2021/10/19 13:42:48;;;;;;;5.30;4.83;;;18.40;99.90;;;;;;6227871;23;20408;-87
2021/10/19 13:45:21;;;;;;;6.00;5.43;;;18.40;99.90;;;;;;6226782;23;20912;-87
2021/10/19 13:48:53;;;;;;;;;;;;;;;;;;;;;
2021/10/19 13:52:24;;;;;;;6.20;5.40;;;18.50;99.90;;;;;;6254140;23;20455;-87
2021/10/19 14:01:28;;;;;;;;;;;;;;;;;;;;;
2021/10/19 14:04:18;;;;;;;6.43;5.83;;;18.20;99.90;;;;;;6144695;23;20407;-86
2021/10/19 14:07:00;;;;;;;6.47;5.87;;;18.20;99.90;;;;;;6101237;23;20402;-87
2021/10/19 14:13:40;;;;;;;6.10;5.50;;;18.40;99.90;;;;;;6185554;23;20419;-88
2021/10/19 14:23:56;;;;;;;6.13;5.53;;;18.40;99.90;;;;;;6044622;23;20800;-87
2021/10/19 14:26:29;;;;;;;5.90;5.30;;;18.40;99.90;;;;;;6018727;23;20453;-87
2021/10/19 14:29:43;;;;;;;6.47;5.53;;;18.50;99.90;;;;;;6096597;23;20756;-88
2021/10/19 14:32:13;;;;;;;11.80;6.20;;;18.50;99.90;;;;;;6075026;23;20425;-90
2021/10/19 14:38:49;;;;;;;6.20;5.13;;;18.70;99.90;;;;;;6255833;23;20412;-88
2021/10/19 15:02:32;;;;;;;7.30;5.40;;;18.50;99.90;;;;;;6285699;22;20929;-87
2021/10/19 15:05:03;;;;;;;6.20;5.70;;;18.50;99.90;;;;;;6233310;23;20424;-88
2021/10/19 15:07:35;;;;;;;5.97;5.47;;;18.80;99.90;;;;;;6228027;23;20408;-87
2021/10/19 15:10:06;;;;;;;5.93;5.43;;;18.90;99.90;;;;;;6226742;23;20450;-88
2021/10/19 15:17:00;;;;;;;6.10;5.50;;;18.90;99.90;;;;;;6074536;23;20384;-87
2021/10/19 15:19:45;;;;;;;5.40;4.90;;;18.80;99.90;;;;;;6167010;23;20500;-87
2021/10/19 15:22:12;;;;;;;6.03;5.47;;;18.80;99.90;;;;;;6250920;23;20728;-87
2021/10/19 15:24:42;;;;;;;6.00;5.40;;;18.80;99.90;;;;;;6251519;22;20446;-87
2021/10/19 15:27:17;;;;;;;6.33;5.73;;;18.90;99.90;;;;;;6224674;23;20411;-87
2021/10/19 15:33:38;;;;;;;7.00;5.23;;;18.60;99.90;;;;;;6193800;23;20414;-87
2021/10/19 15:36:20;;;;;;;7.20;6.30;;;18.30;99.90;;;;;;6196651;23;20847;-88
2021/10/19 15:42:54;;;;;;;7.40;6.50;;;18.10;99.90;;;;;;6245217;23;20400;-85
2021/10/19 15:46:25;;;;;;;;;;;;;;;;;;;;;
2021/10/19 15:50:01;;;;;;;8.67;7.77;;;18.20;99.90;;;;;;6105201;23;20494;-88
2021/10/19 15:52:30;;;;;;;6.03;5.53;;;18.60;99.90;;;;;;6104758;23;20400;-87
2021/10/19 15:59:05;;;;;;;7.43;6.10;;;19.00;99.90;;;;;;6262211;23;20376;-87
2021/10/19 16:01:48;;;;;;;6.43;5.83;;;18.80;99.90;;;;;;6233283;23;20423;-86
2021/10/19 16:04:46;;;;;;;;;;;;;;;;;;;;;
2021/10/19 16:07:22;;;;;;;7.57;6.27;;;18.80;99.90;;;;;;6259148;23;20482;-86
2021/10/19 16:09:53;;;;;;;6.50;5.40;;;18.80;99.90;;;;;;6254582;23;20514;-86
2021/10/19 16:12:30;;;;;;;6.30;5.80;;;18.70;99.90;;;;;;6224933;23;20419;-87
2021/10/19 16:15:13;;;;;;;5.37;4.87;;;18.90;99.90;;;;;;6229766;23;20460;-86
2021/10/19 16:17:57;;;;;;;5.90;5.40;;;18.80;99.90;;;;;;6239388;23;20439;-87
2021/10/19 16:20:33;;;;;;;5.60;5.10;;;19.00;99.90;;;;;;6192182;22;20673;-90
2021/10/19 16:23:18;;;;;;;5.83;4.90;;;19.00;99.90;;;;;;6277668;22;20383;-93
2021/10/19 16:25:45;;;;;;;6.00;5.10;;;19.00;99.90;;;;;;6246123;22;20392;-91
2021/10/19 16:28:47;;;;;;;5.73;5.20;;;19.10;99.90;;;;;;6246749;22;20415;-91
2021/10/19 16:31:17;;;;;;;5.00;4.60;;;18.90;99.90;;;;;;6210746;23;20450;-87
2021/10/19 16:34:25;;;;;;;5.70;5.30;;;19.00;99.90;;;;;;6230853;23;20430;-88
2021/10/19 16:37:25;;;;;;;6.00;5.40;;;19.00;99.90;;;;;;6115971;22;20450;-88
2021/10/19 16:40:02;;;;;;;5.50;5.00;;;18.90;99.90;;;;;;6284510;22;20447;-86
2021/10/19 16:43:00;;;;;;;6.50;5.90;;;18.80;99.90;;;;;;6259171;22;20419;-87
2021/10/19 16:46:21;;;;;;;7.97;5.90;;;18.80;99.90;;;;;;6271163;22;20525;-85
2021/10/19 16:49:18;;;;;;;6.53;5.93;;;18.70;99.90;;;;;;6260814;22;20417;-89
2021/10/19 16:52:18;;;;;;;6.43;5.33;;;18.70;99.90;;;;;;6240308;22;20507;-89
2021/10/19 16:55:21;;;;;;;5.23;4.83;;;18.70;99.90;;;;;;6240123;23;20427;-88
2021/10/19 16:58:04;;;;;;;5.67;5.13;;;18.40;99.90;;;;;;6142631;23;20418;-88
2021/10/19 17:00:39;;;;;;;5.67;5.10;;;18.30;99.90;;;;;;6225183;23;20404;-87
2021/10/19 17:06:53;;;;;;;7.50;6.90;;;18.10;99.90;;;;;;6260923;23;20415;-87
2021/10/19 17:09:43;;;;;;;6.47;5.90;;;18.00;99.90;;;;;;6201392;23;20503;-88
2021/10/19 17:12:29;;;;;;;7.23;6.53;;;17.80;99.90;;;;;;6231717;23;20420;-87
2021/10/19 17:15:29;;;;;;;7.17;6.57;;;17.90;99.90;;;;;;6228977;23;20420;-88
2021/10/19 17:18:45;;;;;;;6.30;5.80;;;17.80;99.90;;;;;;6230687;23;20411;-88
2021/10/19 17:21:37;;;;;;;7.03;6.43;;;18.20;99.90;;;;;;6226436;23;20420;-87
2021/10/19 17:24:33;;;;;;;9.00;6.53;;;18.10;99.90;;;;;;6256518;22;20438;-87
2021/10/19 17:27:25;;;;;;;6.80;6.10;;;18.00;99.90;;;;;;6230078;23;20412;-87
2021/10/19 17:37:58;;;;;;;6.83;6.13;;;17.70;99.90;;;;;;6198065;23;20382;-87
2021/10/19 17:40:44;;;;;;;6.77;6.17;;;17.90;99.90;;;;;;6238195;23;20412;-86
2021/10/19 17:56:56;;;;;;;9.33;7.50;;;17.80;99.90;;;;;;6012044;23;20214;-89
2021/10/19 17:59:26;;;;;;;7.40;6.70;;;17.70;99.90;;;;;;6007649;24;20943;-88
2021/10/19 18:01:57;;;;;;;7.90;7.20;;;17.70;99.90;;;;;;6010829;24;20455;-90
2021/10/19 18:04:26;;;;;;;10.50;7.13;;;17.70;99.90;;;;;;6011528;23;20431;-89
2021/10/19 18:07:29;;;;;;;7.90;7.30;;;17.60;99.90;;;;;;6006049;24;20422;-90
2021/10/19 18:11:01;;;;;;;7.80;7.10;;;17.40;99.90;;;;;;5985754;24;20416;-90
2021/10/19 18:16:17;;;;;;;8.30;6.97;;;17.30;99.90;;;;;;6109509;23;20458;-89
2021/10/19 18:18:49;;;;;;;8.30;7.50;;;17.30;99.90;;;;;;6123088;23;20436;-90
2021/10/19 18:21:38;;;;;;;8.40;7.60;;;17.20;99.90;;;;;;6121216;23;20416;-89
2021/10/19 18:24:22;;;;;;;9.57;7.70;;;17.40;99.90;;;;;;6090692;23;20427;-89
2021/10/19 18:27:05;;;;;;;8.43;7.63;;;17.60;99.90;;;;;;6093586;23;20491;-89
2021/10/19 18:29:39;;;;;;;8.67;7.87;;;17.50;99.90;;;;;;6090601;23;20419;-89
2021/10/19 18:36:05;;;;;;;8.87;8.03;;;17.30;99.90;;;;;;6117139;23;20403;-90
2021/10/19 18:38:33;;;;;;;10.20;9.20;;;17.40;99.90;;;;;;6090871;23;20404;-90